Time;durP1;ratioP1;P1;durP2;ratioP2;P2;SDS_P1;SDS_P2;PMS_P1;PMS_P2;Temp;Humidity;BMP_temperature;BMP_pressure;BME280_temperature;BME280_humidity;BME280_pressure;Samples;Min_cycle;Max_cycle;Signal;HPM_P1;HPM_P2
2022/09/03 00:01:21;;;;;;;20.50;11.65;;;17.70;99.90;;;;;;4992524;28;20120;-90
2022/09/03 00:03:54;;;;;;;17.65;10.13;;;17.70;99.90;;;;;;4975557;28;20073;-89
2022/09/03 00:06:29;;;;;;;21.95;10.50;;;17.70;99.90;;;;;;4956302;28;20114;-92
2022/09/03 00:09:14;;;;;;;12.60;7.80;;;17.70;99.90;;;;;;4956824;28;20073;-91
2022/09/03 00:12:08;;;;;;;16.13;9.15;;;17.70;99.90;;;;;;4976238;28;20080;-90
2022/09/03 00:14:39;;;;;;;23.38;9.13;;;17.70;99.90;;;;;;5036144;28;20021;-90
2022/09/03 00:17:15;;;;;;;17.60;9.32;;;17.70;99.90;;;;;;5052158;28;20044;-88
2022/09/03 00:19:50;;;;;;;13.93;8.65;;;17.70;99.90;;;;;;5036204;28;20051;-89
2022/09/03 00:22:22;;;;;;;13.52;7.75;;;17.80;99.90;;;;;;5036463;28;20025;-89
2022/09/03 00:24:49;;;;;;;17.30;8.30;;;17.70;99.90;;;;;;5038534;28;20021;-88
2022/09/03 00:27:25;;;;;;;15.90;7.78;;;17.70;99.90;;;;;;5044467;28;20082;-90
2022/09/03 00:30:00;;;;;;;11.20;6.57;;;17.70;99.90;;;;;;5036825;28;20093;-90
2022/09/03 00:32:46;;;;;;;16.50;7.90;;;17.70;99.90;;;;;;5036056;28;20041;-90
2022/09/03 00:35:27;;;;;;;19.95;6.93;;;17.70;99.90;;;;;;5069886;28;20121;-89
2022/09/03 00:37:54;;;;;;;14.52;7.15;;;17.70;99.90;;;;;;5052870;28;20143;-89
2022/09/03 00:40:59;;;;;;;14.77;7.07;;;17.70;99.90;;;;;;5046705;28;20478;-89
2022/09/03 00:43:46;;;;;;;13.20;6.50;;;17.70;99.90;;;;;;5070809;28;20046;-89
2022/09/03 00:46:43;;;;;;;11.55;5.93;;;17.70;99.90;;;;;;5051882;28;20074;-88
2022/09/03 00:49:39;;;;;;;17.00;5.80;;;17.70;99.90;;;;;;5071757;28;20462;-89
2022/09/03 00:52:20;;;;;;;15.07;6.80;;;17.70;99.90;;;;;;5069252;28;20014;-90
2022/09/03 00:55:13;;;;;;;19.48;7.45;;;17.70;99.90;;;;;;5054226;28;20112;-89
2022/09/03 00:58:04;;;;;;;17.40;6.60;;;17.70;99.90;;;;;;5054124;28;20373;-89
2022/09/03 01:00:30;;;;;;;9.18;6.00;;;17.70;99.90;;;;;;5056053;28;20477;-89
2022/09/03 01:03:06;;;;;;;13.30;6.95;;;17.70;99.90;;;;;;5058266;28;20038;-88
2022/09/03 01:05:47;;;;;;;13.30;6.80;;;17.70;99.90;;;;;;5075027;28;20051;-86
2022/09/03 01:08:22;;;;;;;;;;;17.70;99.90;;;;;;5059459;28;20020;-90
2022/09/03 01:11:00;;;;;;;15.43;8.27;;;17.70;99.90;;;;;;5058270;28;19966;-89
2022/09/03 01:13:38;;;;;;;16.67;9.88;;;17.70;99.90;;;;;;5053864;28;20374;-89
2022/09/03 01:16:31;;;;;;;19.25;12.20;;;17.60;99.90;;;;;;5040035;28;20033;-89
2022/09/03 01:19:42;;;;;;;24.48;12.88;;;17.60;99.90;;;;;;5057918;28;20037;-89
2022/09/03 01:22:18;;;;;;;25.35;14.15;;;17.60;99.90;;;;;;5040875;28;20051;-88
2022/09/03 01:25:18;;;;;;;21.58;12.65;;;17.50;99.90;;;;;;5054711;28;20115;-89
2022/09/03 01:28:16;;;;;;;21.63;13.23;;;17.50;99.90;;;;;;5038348;28;20028;-91
2022/09/03 01:30:46;;;;;;;21.77;12.70;;;17.50;99.90;;;;;;5037681;28;20052;-88
2022/09/03 01:33:39;;;;;;;19.20;11.90;;;17.50;99.90;;;;;;5039931;28;20078;-89
2022/09/03 01:36:14;;;;;;;24.50;12.75;;;17.50;99.90;;;;;;5040497;28;20321;-89
2022/09/03 01:38:55;;;;;;;23.92;12.68;;;17.50;99.90;;;;;;5040028;28;20052;-89
2022/09/03 01:44:49;;;;;;;26.80;12.07;;;17.40;99.90;;;;;;5059089;28;20126;-89
2022/09/03 01:47:22;;;;;;;22.67;11.63;;;17.40;99.90;;;;;;5042313;28;20025;-89
2022/09/03 01:50:00;;;;;;;18.00;10.68;;;17.40;99.90;;;;;;5042093;28;20122;-90
2022/09/03 01:52:41;;;;;;;19.95;9.75;;;17.40;99.90;;;;;;5041375;28;20037;-90
2022/09/03 01:55:26;;;;;;;16.42;8.73;;;17.40;99.90;;;;;;5039358;28;20024;-89
2022/09/03 01:57:57;;;;;;;12.68;8.65;;;17.40;99.90;;;;;;5038040;28;20069;-89
2022/09/03 02:00:25;;;;;;;13.48;7.38;;;17.40;99.90;;;;;;5038844;28;20028;-89
2022/09/03 02:02:51;;;;;;;18.05;9.57;;;17.30;99.90;;;;;;5038801;28;20029;-89
2022/09/03 02:05:28;;;;;;;14.30;8.27;;;17.30;99.90;;;;;;5038238;28;20398;-89
2022/09/03 02:08:00;;;;;;;14.73;7.63;;;17.30;99.90;;;;;;5055235;28;20084;-89
2022/09/03 02:10:46;;;;;;;16.25;7.90;;;17.30;99.90;;;;;;5039143;28;20025;-90
2022/09/03 02:13:20;;;;;;;21.25;11.98;;;17.20;99.90;;;;;;5036941;28;20021;-89
2022/09/03 02:15:49;;;;;;;17.70;11.15;;;17.30;99.90;;;;;;5037253;28;20028;-89
2022/09/03 02:18:28;;;;;;;20.25;9.70;;;17.20;99.90;;;;;;5037448;28;20044;-88
2022/09/03 02:20:55;;;;;;;16.57;8.93;;;17.30;99.90;;;;;;5038311;28;20554;-89
2022/09/03 02:23:22;;;;;;;16.13;9.32;;;17.30;99.90;;;;;;5037947;28;20086;-88
2022/09/03 02:25:54;;;;;;;17.00;10.00;;;17.30;99.90;;;;;;5039627;28;20061;-89
2022/09/03 02:28:19;;;;;;;15.88;8.70;;;17.20;99.90;;;;;;5041852;28;20087;-89
2022/09/03 02:30:46;;;;;;;14.40;8.25;;;17.20;99.90;;;;;;5037343;28;20021;-88
2022/09/03 02:33:12;;;;;;;19.20;9.07;;;17.10;99.90;;;;;;5036664;28;20115;-88
2022/09/03 02:35:40;;;;;;;20.42;8.40;;;17.10;99.90;;;;;;5036588;28;20037;-88
2022/09/03 02:38:15;;;;;;;18.67;9.15;;;17.00;99.90;;;;;;5057065;28;20048;-88
2022/09/03 02:40:41;;;;;;;18.15;8.98;;;16.90;99.90;;;;;;5038990;28;20150;-88
2022/09/03 02:43:14;;;;;;;17.58;8.13;;;16.90;99.90;;;;;;5039223;28;20029;-88
2022/09/03 02:45:47;;;;;;;18.95;8.85;;;16.90;99.90;;;;;;5043393;28;20044;-89
2022/09/03 02:48:17;;;;;;;18.50;10.43;;;16.90;99.90;;;;;;5039492;28;20021;-88
2022/09/03 02:50:43;;;;;;;21.42;10.30;;;16.90;99.90;;;;;;5037915;28;20025;-88
2022/09/03 02:53:09;;;;;;;20.17;12.88;;;16.90;99.90;;;;;;5040975;28;20096;-89
2022/09/03 02:55:35;;;;;;;18.95;10.25;;;17.00;99.90;;;;;;5040251;28;20025;-89
2022/09/03 02:58:07;;;;;;;19.08;11.82;;;16.90;99.90;;;;;;5042968;28;20330;-90
2022/09/03 03:00:36;;;;;;;22.65;14.68;;;16.90;99.90;;;;;;5408463;22;20060;-88
2022/09/03 03:03:03;;;;;;;23.42;13.57;;;16.90;99.90;;;;;;5075183;28;20029;-90
2022/09/03 03:05:45;;;;;;;21.75;13.55;;;17.00;99.90;;;;;;4988367;28;20032;-91
2022/09/03 03:08:13;;;;;;;28.00;14.23;;;17.00;99.90;;;;;;5075483;28;20016;-90
2022/09/03 03:10:40;;;;;;;22.13;12.05;;;17.10;99.90;;;;;;4991852;28;20040;-89
2022/09/03 03:13:05;;;;;;;23.13;12.10;;;17.10;99.90;;;;;;5074875;28;20019;-90
2022/09/03 03:15:31;;;;;;;28.85;20.08;;;17.10;99.90;;;;;;4989349;28;20021;-90
2022/09/03 03:17:58;;;;;;;17.80;12.02;;;17.10;99.90;;;;;;5075605;28;20032;-88
2022/09/03 03:20:24;;;;;;;26.30;18.73;;;17.10;99.90;;;;;;4989242;28;20028;-91
2022/09/03 03:22:50;;;;;;;31.40;17.20;;;17.10;99.90;;;;;;4988279;28;20028;-89
2022/09/03 03:25:16;;;;;;;27.35;17.10;;;17.10;99.90;;;;;;5075477;28;20044;-89
2022/09/03 03:27:42;;;;;;;22.40;17.13;;;17.10;99.90;;;;;;5073488;28;20032;-90
2022/09/03 03:30:09;;;;;;;19.50;13.27;;;17.10;99.90;;;;;;4988812;28;20171;-90
2022/09/03 03:32:36;;;;;;;25.30;15.10;;;17.10;99.90;;;;;;4988436;28;20028;-88
2022/09/03 03:35:02;;;;;;;26.67;16.55;;;17.10;99.90;;;;;;4987961;28;20358;-91
2022/09/03 03:37:28;;;;;;;17.85;14.50;;;17.10;99.90;;;;;;4988290;28;20040;-89
2022/09/03 03:39:53;;;;;;;19.70;15.02;;;17.10;99.90;;;;;;4988138;28;20026;-89
2022/09/03 03:42:19;;;;;;;27.08;15.35;;;17.10;99.90;;;;;;4988658;28;20119;-89
2022/09/03 03:44:45;;;;;;;28.75;15.38;;;17.00;99.90;;;;;;4989070;28;20047;-89
2022/09/03 03:47:11;;;;;;;24.60;15.70;;;17.00;99.90;;;;;;4988301;28;20493;-89
2022/09/03 03:49:36;;;;;;;24.23;14.95;;;17.00;99.90;;;;;;4988298;28;20037;-89
2022/09/03 03:52:03;;;;;;;24.50;14.18;;;17.00;99.90;;;;;;4988352;28;20066;-90
2022/09/03 03:54:29;;;;;;;18.85;13.98;;;17.00;99.90;;;;;;4987551;28;20052;-90
2022/09/03 03:56:55;;;;;;;18.42;12.73;;;17.00;99.90;;;;;;5073597;28;20028;-90
2022/09/03 03:59:21;;;;;;;17.55;12.07;;;17.00;99.90;;;;;;4988635;28;20028;-89
2022/09/03 04:01:49;;;;;;;24.98;14.65;;;17.00;99.90;;;;;;5053067;28;20127;-91
2022/09/03 04:04:15;;;;;;;35.28;22.10;;;17.00;99.90;;;;;;5072873;28;20028;-91
2022/09/03 04:06:41;;;;;;;28.63;17.70;;;16.90;99.90;;;;;;5073599;28;20155;-88
2022/09/03 04:09:07;;;;;;;27.95;18.75;;;16.90;99.90;;;;;;5073967;28;20039;-89
2022/09/03 04:11:32;;;;;;;23.58;16.30;;;16.80;99.90;;;;;;5073677;28;20024;-90
2022/09/03 04:13:58;;;;;;;23.42;15.55;;;16.80;99.90;;;;;;5074171;28;20017;-91
2022/09/03 04:16:26;;;;;;;27.42;15.82;;;16.80;99.90;;;;;;5056046;28;20028;-90
2022/09/03 04:18:55;;;;;;;29.63;17.75;;;16.80;99.90;;;;;;5073050;28;20028;-90
2022/09/03 04:21:26;;;;;;;36.20;22.17;;;16.80;99.90;;;;;;5079513;28;20028;-89
2022/09/03 04:23:53;;;;;;;33.90;22.38;;;16.80;99.90;;;;;;5076785;28;20039;-90
2022/09/03 04:26:24;;;;;;;34.58;20.95;;;16.80;99.90;;;;;;5079693;28;20105;-90
2022/09/03 04:28:50;;;;;;;34.65;21.45;;;16.80;99.90;;;;;;5075252;28;20115;-91
2022/09/03 04:31:18;;;;;;;31.77;19.58;;;16.80;99.90;;;;;;5072780;28;20021;-91
2022/09/03 04:33:44;;;;;;;30.70;19.83;;;16.80;99.90;;;;;;5073551;28;20020;-90
2022/09/03 04:36:19;;;;;;;31.52;20.08;;;16.80;99.90;;;;;;5073812;28;20591;-91
2022/09/03 04:38:46;;;;;;;33.83;22.08;;;16.80;99.90;;;;;;5078498;28;20048;-90
2022/09/03 04:41:15;;;;;;;41.92;25.58;;;16.80;99.90;;;;;;5073331;28;20052;-90
2022/09/03 04:43:42;;;;;;;48.10;30.63;;;16.80;99.90;;;;;;5072313;28;20061;-91
2022/09/03 04:46:08;;;;;;;48.20;29.13;;;16.80;99.90;;;;;;5072154;28;20025;-92
2022/09/03 04:48:36;;;;;;;51.97;31.67;;;16.80;99.90;;;;;;5071269;28;20021;-91
2022/09/03 04:51:07;;;;;;;52.42;31.85;;;16.80;99.90;;;;;;5072207;28;20031;-91
2022/09/03 04:53:35;;;;;;;48.17;28.67;;;16.80;99.90;;;;;;5072305;28;20123;-91
2022/09/03 04:56:01;;;;;;;45.78;30.05;;;16.70;99.90;;;;;;5072258;28;20551;-90
2022/09/03 04:58:27;;;;;;;41.90;25.70;;;16.70;99.90;;;;;;5072498;28;20040;-89
2022/09/03 05:00:53;;;;;;;45.72;27.63;;;16.70;99.90;;;;;;5072621;28;20044;-91
2022/09/03 05:03:20;;;;;;;46.30;28.23;;;16.70;99.90;;;;;;5074480;28;20035;-90
2022/09/03 05:05:55;;;;;;;51.47;30.70;;;16.60;99.90;;;;;;5070024;28;20025;-91
2022/09/03 05:08:22;;;;;;;53.25;31.20;;;16.60;99.90;;;;;;5073080;28;20067;-89
2022/09/03 05:10:48;;;;;;;62.60;34.38;;;16.50;99.90;;;;;;5072413;28;20110;-89
2022/09/03 05:13:14;;;;;;;53.03;31.35;;;16.50;99.90;;;;;;5073020;28;20036;-90
2022/09/03 05:15:44;;;;;;;51.53;32.35;;;16.50;99.90;;;;;;5072183;28;20384;-90
2022/09/03 05:18:10;;;;;;;51.60;30.97;;;16.50;99.90;;;;;;5071636;28;20058;-90
2022/09/03 05:20:35;;;;;;;49.47;30.13;;;16.50;99.90;;;;;;5072439;28;20485;-89
2022/09/03 05:23:02;;;;;;;52.58;30.75;;;16.50;99.90;;;;;;5072961;28;20115;-89
2022/09/03 05:25:31;;;;;;;56.42;33.97;;;16.50;99.90;;;;;;5072327;28;20025;-90
2022/09/03 05:27:57;;;;;;;53.00;31.95;;;16.40;99.90;;;;;;5072483;28;20032;-89
2022/09/03 05:30:23;;;;;;;51.70;33.63;;;16.40;99.90;;;;;;5073066;28;20025;-90
2022/09/03 05:32:49;;;;;;;53.58;30.27;;;16.30;99.90;;;;;;5073684;28;20028;-90
2022/09/03 05:35:15;;;;;;;53.40;30.42;;;16.30;99.90;;;;;;5074563;28;20366;-89
2022/09/03 05:37:40;;;;;;;52.00;31.92;;;16.30;99.90;;;;;;5065062;28;20041;-89
2022/09/03 05:40:09;;;;;;;59.85;34.95;;;16.30;99.90;;;;;;5091483;28;20024;-89
2022/09/03 05:42:36;;;;;;;55.70;30.05;;;16.30;99.90;;;;;;5089204;28;20119;-89
2022/09/03 05:45:09;;;;;;;51.58;30.63;;;16.20;99.90;;;;;;5074721;28;20025;-89
2022/09/03 05:47:36;;;;;;;47.75;29.90;;;16.20;99.90;;;;;;5073658;28;20070;-89
2022/09/03 05:50:02;;;;;;;48.70;29.13;;;16.20;99.90;;;;;;5072920;28;20017;-89
2022/09/03 05:52:28;;;;;;;51.95;29.65;;;16.20;99.90;;;;;;5073081;28;20032;-89
2022/09/03 05:54:53;;;;;;;53.67;30.13;;;16.20;99.90;;;;;;5072491;28;20385;-89
2022/09/03 05:57:19;;;;;;;53.15;32.80;;;16.20;99.90;;;;;;5072487;28;20028;-89
2022/09/03 05:59:45;;;;;;;57.80;32.30;;;16.20;99.90;;;;;;5072709;28;20100;-89
2022/09/03 06:02:10;;;;;;;56.03;30.90;;;16.10;99.90;;;;;;5072704;28;20078;-91
2022/09/03 06:04:36;;;;;;;65.22;34.13;;;16.10;99.90;;;;;;5072970;28;20107;-91
2022/09/03 06:07:02;;;;;;;53.33;31.52;;;16.10;99.90;;;;;;5071982;28;20021;-91
2022/09/03 06:09:28;;;;;;;63.85;35.45;;;16.10;99.90;;;;;;5072572;28;20073;-90
2022/09/03 06:11:57;;;;;;;58.17;33.55;;;16.10;99.90;;;;;;5072756;28;20107;-90
2022/09/03 06:14:22;;;;;;;57.00;32.03;;;16.10;99.90;;;;;;5067241;28;20024;-90
2022/09/03 06:16:51;;;;;;;57.65;30.98;;;16.10;99.90;;;;;;5072816;28;20504;-90
2022/09/03 06:19:17;;;;;;;54.22;29.70;;;16.10;99.90;;;;;;5073097;28;20028;-91
2022/09/03 06:21:44;;;;;;;52.97;32.00;;;16.10;99.90;;;;;;5072681;28;20028;-90
2022/09/03 06:24:16;;;;;;;58.58;33.72;;;16.20;99.90;;;;;;5073390;28;20119;-89
2022/09/03 06:26:42;;;;;;;62.92;33.80;;;16.20;99.90;;;;;;5069772;28;20190;-90
2022/09/03 06:29:07;;;;;;;58.58;32.63;;;16.20;99.90;;;;;;5078430;28;20044;-90
2022/09/03 06:31:34;;;;;;;56.20;33.80;;;16.30;99.90;;;;;;5077011;28;20422;-91
2022/09/03 06:34:00;;;;;;;58.00;33.65;;;16.30;99.90;;;;;;5072309;28;20021;-91
2022/09/03 06:36:26;;;;;;;57.17;32.83;;;16.30;99.90;;;;;;5072717;28;20038;-91
2022/09/03 06:38:54;;;;;;;62.10;34.80;;;16.40;99.90;;;;;;5072368;28;20054;-90
2022/09/03 06:41:24;;;;;;;60.85;34.90;;;16.40;99.90;;;;;;5072607;28;20035;-91
2022/09/03 06:44:01;;;;;;;64.25;34.70;;;16.50;99.90;;;;;;5072780;28;20042;-90
2022/09/03 06:46:28;;;;;;;58.65;35.22;;;16.50;99.90;;;;;;5070208;28;20033;-91
2022/09/03 06:48:54;;;;;;;59.00;36.00;;;16.60;99.90;;;;;;5077579;28;20251;-91
2022/09/03 06:51:25;;;;;;;58.80;36.20;;;16.60;99.90;;;;;;5080321;28;20037;-91
2022/09/03 06:53:52;;;;;;;;;;;16.70;99.90;;;;;;5071242;28;20028;-92
2022/09/03 06:56:27;;;;;;;60.95;36.58;;;16.70;99.90;;;;;;5073778;28;19904;-92
2022/09/03 06:58:57;;;;;;;58.60;34.85;;;16.80;99.90;;;;;;5073429;28;20043;-90
2022/09/03 07:01:29;;;;;;;62.67;35.67;;;16.80;99.90;;;;;;5073175;28;20090;-90
2022/09/03 07:03:57;;;;;;;64.85;37.33;;;16.90;99.90;;;;;;5073214;28;20131;-91
2022/09/03 07:06:28;;;;;;;58.03;34.50;;;16.90;99.90;;;;;;5073367;28;20032;-91
2022/09/03 07:08:56;;;;;;;59.88;32.35;;;17.00;99.90;;;;;;5074909;28;20031;-93
2022/09/03 07:11:25;;;;;;;56.30;34.85;;;17.00;99.90;;;;;;5074070;28;20115;-91
2022/09/03 07:13:52;;;;;;;57.85;36.67;;;17.10;99.90;;;;;;5073239;28;20044;-90
2022/09/03 07:16:20;;;;;;;60.50;34.75;;;17.10;99.90;;;;;;5073520;28;20492;-91
2022/09/03 07:18:47;;;;;;;60.55;34.85;;;17.10;99.90;;;;;;5056633;28;20040;-90
2022/09/03 07:21:20;;;;;;;52.72;32.35;;;17.10;99.90;;;;;;5073614;28;20085;-92
2022/09/03 07:23:47;;;;;;;60.70;35.28;;;17.20;99.90;;;;;;5073656;28;20486;-91
2022/09/03 07:26:18;;;;;;;50.72;30.95;;;17.20;99.90;;;;;;5078794;28;20039;-91
2022/09/03 07:28:45;;;;;;;63.30;34.85;;;17.30;99.90;;;;;;5076578;28;20043;-91
2022/09/03 07:31:18;;;;;;;62.45;37.42;;;17.30;99.90;;;;;;5072282;28;20051;-92
2022/09/03 07:33:44;;;;;;;50.08;29.33;;;17.40;99.90;;;;;;5072798;28;20081;-93
2022/09/03 07:36:13;;;;;;;57.83;31.77;;;17.40;99.90;;;;;;5068533;28;20047;-93
2022/09/03 07:38:39;;;;;;;60.20;35.92;;;17.50;99.90;;;;;;5071758;28;20485;-92
2022/09/03 07:41:07;;;;;;;63.47;36.53;;;17.60;99.90;;;;;;5058814;28;20036;-91
2022/09/03 07:43:38;;;;;;;59.45;36.75;;;17.70;99.90;;;;;;5073279;28;20020;-93
2022/09/03 07:46:09;;;;;;;61.53;37.00;;;17.80;99.90;;;;;;5069372;28;20048;-92
2022/09/03 07:48:34;;;;;;;70.18;38.67;;;17.80;99.90;;;;;;5070947;28;20073;-92
2022/09/03 07:51:01;;;;;;;65.20;37.75;;;17.90;99.90;;;;;;5072799;28;20020;-91
2022/09/03 07:53:28;;;;;;;60.63;36.78;;;17.90;99.90;;;;;;5071338;28;20074;-92
2022/09/03 07:56:00;;;;;;;60.72;36.35;;;18.00;99.90;;;;;;5071643;28;20425;-92
2022/09/03 07:58:29;;;;;;;63.58;40.80;;;18.00;99.90;;;;;;5070578;28;20494;-91
2022/09/03 08:00:55;;;;;;;68.03;39.20;;;18.10;99.90;;;;;;5042769;28;20563;-91
2022/09/03 08:03:22;;;;;;;73.55;39.42;;;18.20;99.90;;;;;;5067240;28;20412;-92
2022/09/03 08:05:47;;;;;;;66.10;38.35;;;18.20;99.90;;;;;;5082778;28;20116;-91
2022/09/03 08:08:13;;;;;;;62.88;37.67;;;18.20;99.90;;;;;;5078528;28;20440;-93
2022/09/03 08:10:40;;;;;;;60.47;35.45;;;18.30;99.90;;;;;;5081905;28;20024;-92
2022/09/03 08:13:06;;;;;;;58.78;36.92;;;18.40;99.90;;;;;;5071824;28;20035;-91
2022/09/03 08:15:33;;;;;;;57.78;36.42;;;18.50;99.90;;;;;;5065899;28;20013;-92
2022/09/03 08:17:59;;;;;;;60.00;37.25;;;18.50;99.90;;;;;;5063233;28;20469;-92
2022/09/03 08:20:26;;;;;;;65.10;39.20;;;18.60;99.90;;;;;;5062865;28;20021;-93
2022/09/03 08:22:52;;;;;;;62.58;38.25;;;18.60;99.90;;;;;;5072064;28;20083;-91
2022/09/03 08:25:18;;;;;;;60.35;35.55;;;18.60;99.90;;;;;;5058465;28;20049;-92
2022/09/03 08:27:44;;;;;;;56.75;35.83;;;18.70;99.90;;;;;;5054225;28;20032;-93
2022/09/03 08:30:16;;;;;;;61.28;36.33;;;18.70;99.90;;;;;;5078996;28;20016;-91
2022/09/03 08:32:42;;;;;;;53.22;34.70;;;18.80;99.90;;;;;;5067333;28;20024;-91
2022/09/03 08:35:08;;;;;;;55.17;35.75;;;18.90;99.90;;;;;;5062399;28;20534;-92
2022/09/03 08:37:34;;;;;;;56.03;36.53;;;19.00;99.90;;;;;;5070447;28;20039;-92
2022/09/03 08:40:02;;;;;;;53.60;32.97;;;19.00;99.90;;;;;;5059143;28;20025;-93
2022/09/03 08:42:48;;;;;;;62.30;35.65;;;19.20;99.90;;;;;;5060912;28;20119;-95
2022/09/03 08:45:18;;;;;;;57.13;33.25;;;19.30;99.90;;;;;;5058594;28;20025;-93
2022/09/03 08:48:04;;;;;;;57.67;34.45;;;19.30;99.90;;;;;;5069402;28;20469;-92
2022/09/03 08:50:43;;;;;;;54.63;34.08;;;19.40;99.90;;;;;;5071733;28;20037;-92
2022/09/03 08:53:21;;;;;;;49.38;32.63;;;19.50;99.90;;;;;;5073367;28;20059;-92
2022/09/03 08:55:53;;;;;;;47.38;31.17;;;19.50;99.90;;;;;;5074009;28;20028;-93
2022/09/03 08:58:29;;;;;;;47.30;31.40;;;19.60;99.90;;;;;;5073785;28;20041;-92
2022/09/03 09:01:25;;;;;;;47.50;31.40;;;19.60;99.90;;;;;;5072268;28;20036;-92
2022/09/03 09:04:12;;;;;;;48.22;29.80;;;19.50;99.90;;;;;;5072221;28;20094;-93
2022/09/03 09:07:04;;;;;;;49.97;28.98;;;19.50;99.90;;;;;;5065368;28;20111;-93
2022/09/03 09:09:48;;;;;;;43.10;27.48;;;19.40;99.90;;;;;;5071626;28;20051;-92
2022/09/03 09:13:08;;;;;;;43.22;26.98;;;19.40;99.90;;;;;;5084566;28;20029;-91
2022/09/03 09:15:46;;;;;;;43.33;26.25;;;19.40;99.90;;;;;;5082792;28;20478;-92
2022/09/03 09:18:37;;;;;;;42.45;27.63;;;19.40;99.90;;;;;;5088112;28;20043;-92
2022/09/03 09:21:15;;;;;;;41.65;27.50;;;19.50;99.90;;;;;;5083955;28;20021;-93
2022/09/03 09:23:47;;;;;;;37.22;23.45;;;19.50;99.90;;;;;;5073127;28;20115;-92
2022/09/03 09:26:16;;;;;;;30.17;19.83;;;19.60;99.90;;;;;;5073384;28;20029;-92
2022/09/03 09:28:44;;;;;;;34.13;20.90;;;19.70;99.90;;;;;;5075106;28;20013;-93
2022/09/03 09:31:14;;;;;;;33.75;23.20;;;19.80;99.90;;;;;;5087765;28;20040;-93
2022/09/03 09:33:40;;;;;;;29.83;20.20;;;19.80;99.90;;;;;;5086031;28;20483;-91
2022/09/03 09:36:15;;;;;;;34.50;21.15;;;19.80;99.90;;;;;;5085917;28;20032;-92
2022/09/03 09:38:51;;;;;;;28.90;21.00;;;19.80;99.90;;;;;;5080859;28;20066;-94
2022/09/03 09:41:20;;;;;;;30.15;19.38;;;19.80;99.90;;;;;;5089756;28;20111;-92
2022/09/03 09:44:04;;;;;;;28.88;19.10;;;19.80;99.90;;;;;;5089218;28;20024;-92
2022/09/03 09:46:39;;;;;;;37.30;23.50;;;19.90;99.90;;;;;;5087358;28;20013;-91
2022/09/03 09:49:32;;;;;;;34.17;22.15;;;19.90;99.90;;;;;;5084542;28;20055;-92
2022/09/03 09:52:07;;;;;;;34.40;21.05;;;20.00;99.90;;;;;;5038455;28;20064;-92
2022/09/03 09:54:34;;;;;;;37.95;21.67;;;20.10;99.90;;;;;;5061248;28;20052;-92
2022/09/03 09:57:05;;;;;;;35.65;22.58;;;20.20;99.90;;;;;;5044176;28;20180;-92
2022/09/03 09:59:36;;;;;;;37.35;23.48;;;20.30;99.90;;;;;;5034873;28;20079;-92
2022/09/03 10:02:13;;;;;;;36.67;23.15;;;20.40;99.90;;;;;;5026128;28;20049;-92
2022/09/03 10:04:39;;;;;;;37.90;26.73;;;20.50;99.90;;;;;;5024870;28;20078;-94
2022/09/03 10:07:18;;;;;;;41.00;28.20;;;20.50;99.90;;;;;;5019534;28;20026;-94
2022/09/03 10:09:44;;;;;;;51.95;31.42;;;20.60;99.90;;;;;;5020219;28;20049;-92
2022/09/03 10:12:23;;;;;;;45.47;30.17;;;20.60;99.90;;;;;;5025419;28;20029;-92
2022/09/03 10:15:11;;;;;;;48.63;31.40;;;20.50;99.90;;;;;;5016890;28;20041;-91
2022/09/03 10:17:58;;;;;;;40.67;25.60;;;20.50;99.90;;;;;;5016481;28;20045;-93
2022/09/03 10:20:50;;;;;;;46.70;28.90;;;20.50;99.90;;;;;;5017548;28;20029;-92
2022/09/03 10:23:28;;;;;;;41.33;25.85;;;20.50;99.90;;;;;;5020494;28;20029;-92
2022/09/03 10:26:28;;;;;;;42.10;27.17;;;20.50;99.90;;;;;;5025981;28;20167;-92
2022/09/03 10:28:58;;;;;;;38.97;24.40;;;20.50;99.90;;;;;;5044802;28;20021;-92
2022/09/03 10:31:33;;;;;;;37.17;27.10;;;20.50;99.90;;;;;;5077509;28;20028;-91
2022/09/03 10:34:13;;;;;;;40.58;27.60;;;20.50;99.90;;;;;;5087967;28;20033;-92
2022/09/03 10:36:59;;;;;;;40.92;25.83;;;20.60;99.90;;;;;;5075796;28;20037;-91
2022/09/03 10:39:38;;;;;;;38.20;26.02;;;20.60;99.90;;;;;;5068553;28;20390;-92
2022/09/03 10:42:10;;;;;;;41.72;25.77;;;20.60;99.90;;;;;;5072442;28;20103;-92
2022/09/03 10:45:08;;;;;;;35.65;25.08;;;20.60;99.90;;;;;;5073223;28;20187;-91
2022/09/03 10:47:45;;;;;;;37.40;23.70;;;20.70;99.90;;;;;;4986778;28;20030;-91
2022/09/03 10:50:45;;;;;;;31.83;21.65;;;20.90;99.90;;;;;;4967881;28;20034;-93
2022/09/03 10:54:00;;;;;;;36.57;24.50;;;21.10;99.90;;;;;;4993058;28;20026;-91
2022/09/03 10:56:55;;;;;;;33.10;20.30;;;21.50;99.90;;;;;;4978598;28;20333;-91
2022/09/03 10:59:47;;;;;;;33.55;23.42;;;21.70;99.90;;;;;;4968348;28;20049;-92
2022/09/03 11:02:32;;;;;;;28.30;19.98;;;22.00;99.90;;;;;;4965014;28;20113;-92
2022/09/03 11:05:06;;;;;;;31.48;19.33;;;22.30;99.90;;;;;;4977171;28;20128;-91
2022/09/03 11:07:40;;;;;;;36.65;21.10;;;22.30;99.90;;;;;;4977935;28;20057;-92
2022/09/03 11:10:17;;;;;;;26.92;18.60;;;22.30;99.90;;;;;;4975740;28;20034;-93
2022/09/03 11:13:19;;;;;;;31.85;19.90;;;22.30;99.90;;;;;;4990984;28;20034;-95
2022/09/03 11:15:48;;;;;;;23.73;15.85;;;22.50;99.90;;;;;;4991864;28;20603;-92
2022/09/03 11:18:44;;;;;;;22.40;13.20;;;22.40;99.90;;;;;;4994613;28;20039;-95
2022/09/03 11:21:13;;;;;;;19.17;13.05;;;22.40;99.90;;;;;;4976254;28;20026;-93
2022/09/03 11:23:45;;;;;;;17.48;12.52;;;22.50;99.90;;;;;;5006262;28;20058;-95
2022/09/03 11:26:15;;;;;;;16.25;11.82;;;22.60;98.80;;;;;;5048869;28;20044;-93
2022/09/03 11:28:54;;;;;;;17.58;11.13;;;22.60;97.90;;;;;;5064565;28;20016;-92
2022/09/03 11:31:46;;;;;;;19.15;11.88;;;22.70;97.30;;;;;;5071561;28;20166;-94
2022/09/03 11:34:25;;;;;;;16.17;11.18;;;22.70;96.20;;;;;;5065756;28;20025;-91
2022/09/03 11:37:03;;;;;;;19.83;11.68;;;22.70;96.00;;;;;;5061387;28;20036;-94
2022/09/03 11:39:31;;;;;;;15.90;10.57;;;22.70;95.70;;;;;;5067450;28;20092;-93
2022/09/03 11:42:06;;;;;;;16.47;10.27;;;22.70;94.70;;;;;;5080546;28;20040;-90
2022/09/03 11:44:50;;;;;;;15.68;9.73;;;22.70;94.50;;;;;;5090121;28;20029;-95
2022/09/03 11:47:21;;;;;;;17.13;9.55;;;22.60;94.00;;;;;;5065014;28;20109;-93
2022/09/03 11:49:49;;;;;;;;;;;22.50;93.60;;;;;;5072363;28;20021;-94
2022/09/03 11:52:28;;;;;;;14.77;8.15;;;22.40;93.70;;;;;;5057485;28;19905;-94
2022/09/03 11:54:54;;;;;;;15.95;9.00;;;22.50;93.90;;;;;;5076088;28;20037;-96
2022/09/03 11:57:32;;;;;;;12.90;7.70;;;22.50;93.90;;;;;;5073757;28;20029;-95
2022/09/03 12:00:11;;;;;;;12.32;8.80;;;22.50;93.90;;;;;;5079853;28;20028;-95
2022/09/03 12:02:44;;;;;;;10.43;7.72;;;22.60;93.60;;;;;;4993172;28;20090;-94
2022/09/03 12:05:44;;;;;;;11.60;7.45;;;22.60;93.30;;;;;;4981281;28;20154;-91
2022/09/03 12:08:21;;;;;;;11.30;6.93;;;22.60;92.90;;;;;;4986057;28;20033;-93
2022/09/03 12:11:01;;;;;;;26.48;9.30;;;22.70;92.90;;;;;;4986986;28;20028;-93
2022/09/03 12:13:42;;;;;;;;;;;22.70;92.70;;;;;;4984386;28;20029;-92
2022/09/03 12:16:42;;;;;;;18.08;8.43;;;22.80;92.40;;;;;;4989294;28;20175;-92
2022/09/03 12:19:31;;;;;;;15.82;8.63;;;22.80;92.10;;;;;;4999325;28;20390;-93
2022/09/03 12:21:56;;;;;;;11.80;6.25;;;22.80;91.70;;;;;;4987415;28;20035;-93
2022/09/03 12:24:30;;;;;;;10.43;7.05;;;22.90;91.60;;;;;;4986398;28;20021;-92
2022/09/03 12:26:59;;;;;;;10.98;6.82;;;23.00;91.30;;;;;;4981354;28;20074;-93
2022/09/03 12:29:27;;;;;;;13.68;7.93;;;22.90;90.70;;;;;;5001886;28;20032;-94
2022/09/03 12:31:55;;;;;;;12.57;7.00;;;23.00;90.90;;;;;;5005230;28;20024;-91
2022/09/03 12:34:23;;;;;;;10.27;6.85;;;23.00;90.80;;;;;;5018479;28;20047;-89
2022/09/03 12:36:53;;;;;;;11.20;7.75;;;23.10;90.60;;;;;;4996934;28;20017;-92
2022/09/03 12:39:24;;;;;;;11.55;8.00;;;23.10;90.70;;;;;;4994581;28;20024;-92
2022/09/03 12:42:05;;;;;;;12.10;7.78;;;23.10;90.60;;;;;;5002861;28;20437;-93
2022/09/03 12:44:34;;;;;;;12.02;8.43;;;23.20;90.80;;;;;;5005038;28;20052;-92
2022/09/03 12:47:05;;;;;;;14.23;8.13;;;23.20;90.30;;;;;;5004342;28;20055;-91
2022/09/03 12:49:47;;;;;;;12.43;8.45;;;23.20;90.20;;;;;;4992640;28;20036;-93
2022/09/03 12:52:41;;;;;;;12.18;6.97;;;23.20;90.10;;;;;;4988382;28;20114;-93
2022/09/03 12:55:40;;;;;;;11.52;7.72;;;23.40;90.20;;;;;;5033259;28;20445;-94
2022/09/03 12:58:06;;;;;;;8.90;6.20;;;23.50;89.90;;;;;;4971086;28;20076;-92
2022/09/03 13:00:36;;;;;;;11.80;6.63;;;23.70;89.60;;;;;;4983291;28;20032;-92
2022/09/03 13:03:08;;;;;;;11.45;6.65;;;23.90;88.60;;;;;;5081403;28;20478;-92
2022/09/03 13:06:14;;;;;;;8.10;6.30;;;24.00;87.20;;;;;;5077462;28;20116;-91